createdAt,value
2022-09-15T00:04:03.229Z,100039.38
2022-09-15T00:09:04.866Z,100052.50
2022-09-15T00:14:07.183Z,100053.78
2022-09-15T00:19:10.664Z,100050.59
2022-09-15T00:24:12.084Z,100058.94
2022-09-15T00:29:13.394Z,100063.75
2022-09-15T00:34:14.706Z,100062.41
2022-09-15T00:39:16.493Z,100071.25
2022-09-15T00:44:23.942Z,100076.50
2022-09-15T00:49:28.171Z,100079.91
2022-09-15T00:54:32.325Z,100068.59
2022-09-15T00:59:35.101Z,100073.88
2022-09-15T01:04:36.499Z,100074.47
2022-09-15T01:09:40.188Z,100077.09
2022-09-15T01:14:41.521Z,100084.16
2022-09-15T01:19:45.877Z,100077.22
2022-09-15T01:25:07.550Z,100079.50
2022-09-15T01:30:11.987Z,100082.81
2022-09-15T01:35:20.181Z,100084.31
2022-09-15T01:40:22.935Z,100087.38
2022-09-15T01:45:30.508Z,100081.75
2022-09-15T01:50:41.653Z,100089.19
2022-09-15T01:56:06.289Z,100097.91
2022-09-15T02:01:29.711Z,100093.66
2022-09-15T02:06:36.690Z,100099.03
2022-09-15T02:11:41.725Z,100094.72
2022-09-15T02:16:45.962Z,100080.63
2022-09-15T02:21:54.815Z,100083.97
2022-09-15T02:26:57.594Z,100085.81
2022-09-15T02:32:06.807Z,100078.25
2022-09-15T02:37:09.636Z,100081.69
2022-09-15T02:42:11.181Z,100083.38
2022-09-15T02:47:13.442Z,100093.56
2022-09-15T02:52:14.784Z,100101.44
2022-09-15T02:57:16.484Z,100086.97
2022-09-15T03:02:20.549Z,100089.69
2022-09-15T03:07:22.070Z,100101.34
2022-09-15T03:12:23.696Z,100094.72
2022-09-15T03:17:25.284Z,100099.97
2022-09-15T03:22:26.605Z,100102.13
2022-09-15T03:27:27.943Z,100113.69
2022-09-15T03:32:29.285Z,100119.81
2022-09-15T03:37:30.617Z,100123.72
2022-09-15T03:42:32.305Z,100123.59
2022-09-15T03:47:33.637Z,100119.59
2022-09-15T03:52:34.975Z,100108.88
2022-09-15T03:57:36.300Z,100119.94
2022-09-15T04:02:37.631Z,100121.44
2022-09-15T04:07:41.991Z,100114.38
2022-09-15T04:12:44.325Z,100121.44
2022-09-15T04:17:45.855Z,100120.53
2022-09-15T04:22:47.147Z,100120.41
2022-09-15T04:27:48.453Z,100129.84
2022-09-15T04:32:50.096Z,100133.72
2022-09-15T04:37:51.600Z,100128.53
2022-09-15T04:42:53.830Z,100132.28
2022-09-15T04:47:55.156Z,100136.47
2022-09-15T04:52:56.575Z,100126.88
2022-09-15T04:57:58.099Z,100132.56
2022-09-15T05:02:59.764Z,100136.44
2022-09-15T05:08:01.392Z,100136.22
2022-09-15T05:13:02.767Z,100140.78
2022-09-15T05:18:04.161Z,100144.56
2022-09-15T05:23:05.478Z,100151.41
2022-09-15T05:28:07.724Z,100160.78
2022-09-15T05:33:09.033Z,100165.28
2022-09-15T05:38:10.353Z,100167.31
2022-09-15T05:43:11.665Z,100177.44
2022-09-15T05:48:13.024Z,100182.69
2022-09-15T05:53:14.337Z,100176.22
2022-09-15T05:58:15.648Z,100173.72
2022-09-15T06:03:17.085Z,100183.44
2022-09-15T06:08:18.437Z,100177.66
2022-09-15T06:13:19.810Z,100179.88
2022-09-15T06:18:21.126Z,100177.84
2022-09-15T06:23:22.451Z,100174.31
2022-09-15T06:28:25.010Z,100171.56
2022-09-15T06:33:27.219Z,100182.28
2022-09-15T06:38:29.055Z,100190.59
2022-09-15T06:43:30.939Z,100189.44
2022-09-15T06:48:32.333Z,100191.59
2022-09-15T06:53:35.102Z,100192.31
2022-09-15T06:58:37.098Z,100199.84
2022-09-15T07:03:39.211Z,100205.34
2022-09-15T07:08:41.027Z,100211.88
2022-09-15T07:13:42.684Z,100216.78
2022-09-15T07:18:44.773Z,100225.78
2022-09-15T07:23:46.925Z,100222.50
2022-09-15T07:28:53.676Z,100226.50
2022-09-15T07:33:55.516Z,100216.69
2022-09-15T07:38:57.290Z,100235.44
2022-09-15T07:43:59.912Z,100237.91
2022-09-15T07:49:03.018Z,100240.78
2022-09-15T07:54:04.861Z,100243.53
2022-09-15T07:59:06.177Z,100252.84
2022-09-15T08:04:07.496Z,100258.44
2022-09-15T08:09:14.486Z,100267.81
2022-09-15T08:14:15.800Z,100273.94
2022-09-15T08:19:17.109Z,100272.22
2022-09-15T08:24:18.489Z,100280.63
2022-09-15T08:29:19.875Z,100288.00
2022-09-15T08:34:21.609Z,100293.75
2022-09-15T08:39:23.068Z,100291.94
2022-09-15T08:44:27.388Z,100295.88
2022-09-15T08:49:51.450Z,100286.97
2022-09-15T08:54:56.950Z,100286.25
2022-09-15T08:59:59.645Z,100297.41
2022-09-15T09:05:19.591Z,100301.50
2022-09-15T09:10:46.663Z,100300.28
2022-09-15T09:16:03.874Z,100309.19
2022-09-15T09:21:13.447Z,100303.84
2022-09-15T09:26:15.458Z,100299.38
2022-09-15T09:31:18.963Z,100303.66
2022-09-15T09:36:20.915Z,100304.31
2022-09-15T09:41:35.429Z,100304.47
2022-09-15T09:46:36.781Z,100311.84
2022-09-15T09:51:59.914Z,100308.75
2022-09-15T09:57:13.169Z,100308.31
2022-09-15T10:02:16.134Z,100302.50
2022-09-15T10:07:22.765Z,100298.94
2022-09-15T10:12:40.560Z,100314.94
2022-09-15T10:17:43.919Z,100307.91
2022-09-15T10:22:45.333Z,100306.13
2022-09-15T10:28:06.907Z,100301.13
2022-09-15T10:33:23.843Z,100302.56
2022-09-15T10:38:38.815Z,100305.28
2022-09-15T10:43:47.863Z,100308.50
2022-09-15T10:48:49.282Z,100303.25
2022-09-15T10:53:57.650Z,100304.56
2022-09-15T10:59:15.038Z,100310.16
2022-09-15T11:04:42.806Z,100305.09
2022-09-15T11:09:44.113Z,100299.34
2022-09-15T11:15:23.787Z,100294.34
2022-09-15T11:20:43.930Z,100296.44
2022-09-15T11:25:48.716Z,100290.28
2022-09-15T11:31:02.759Z,100297.59
2022-09-15T11:36:11.128Z,100299.16
2022-09-15T11:41:24.659Z,100301.03
2022-09-15T11:46:30.153Z,100300.41
2022-09-15T11:51:34.724Z,100300.91
2022-09-15T11:56:42.655Z,100299.13
2022-09-15T12:01:49.016Z,100307.03
2022-09-15T12:06:57.026Z,100311.59
2022-09-15T12:12:01.885Z,100306.00
2022-09-15T12:17:09.739Z,100305.41
2022-09-15T12:22:14.073Z,100304.22
2022-09-15T12:27:16.835Z,100308.09
2022-09-15T12:32:31.968Z,100300.03
2022-09-15T12:37:39.746Z,100310.22
2022-09-15T12:42:45.543Z,100310.88
2022-09-15T12:47:54.617Z,100309.91
2022-09-15T12:53:01.348Z,100305.69
2022-09-15T12:58:09.864Z,100307.69
2022-09-15T13:03:55.351Z,100303.03
2022-09-15T13:09:05.961Z,100302.38
2022-09-15T13:14:19.080Z,100318.38
2022-09-15T13:19:22.388Z,100302.44
2022-09-15T13:24:41.708Z,100306.19
2022-09-15T13:29:48.124Z,100297.41
2022-09-15T13:35:09.683Z,100309.91
2022-09-15T13:40:32.820Z,100304.09
2022-09-15T13:45:44.926Z,100304.28
2022-09-15T13:50:55.534Z,100301.16
2022-09-15T13:55:57.299Z,100283.88
2022-09-15T14:01:00.543Z,100280.75
2022-09-15T14:06:01.998Z,100273.22
2022-09-15T14:11:06.767Z,100280.06
2022-09-15T14:21:25.985Z,100270.31
2022-09-15T14:26:29.906Z,100273.50
2022-09-15T14:31:35.942Z,100273.03
2022-09-15T14:36:37.313Z,100269.56
2022-09-15T14:41:40.055Z,100265.53
2022-09-15T14:46:41.384Z,100268.22
2022-09-15T14:51:43.633Z,100274.34
2022-09-15T14:56:45.719Z,100270.34
2022-09-15T15:01:53.200Z,100278.31
2022-09-15T15:07:01.760Z,100289.41
2022-09-15T15:12:19.165Z,100291.53
2022-09-15T15:17:48.896Z,100301.50
2022-09-15T15:23:08.772Z,100294.50
2022-09-15T15:28:28.555Z,100299.41
2022-09-15T15:33:30.038Z,100301.13
2022-09-15T15:38:33.850Z,100311.19
2022-09-15T15:43:35.420Z,100313.31
2022-09-15T15:48:38.212Z,100320.47
2022-09-15T15:53:40.051Z,100324.66
2022-09-15T15:58:41.351Z,100327.56
2022-09-15T16:03:42.631Z,100342.75
2022-09-15T16:08:44.741Z,100355.03
2022-09-15T16:13:46.928Z,100352.41
2022-09-15T16:18:48.783Z,100350.84
2022-09-15T16:23:50.097Z,100338.44
2022-09-15T16:28:52.177Z,100349.25
2022-09-15T16:33:53.706Z,100341.88
2022-09-15T16:38:55.086Z,100345.41
2022-09-15T16:43:56.563Z,100343.41
2022-09-15T16:48:57.907Z,100351.47
2022-09-15T16:53:59.470Z,100354.84
2022-09-15T16:59:00.925Z,100350.59
2022-09-15T17:04:03.253Z,100357.06
2022-09-15T17:09:04.862Z,100360.03
2022-09-15T17:14:06.168Z,100356.03
2022-09-15T17:19:07.475Z,100357.91
2022-09-15T17:24:09.139Z,100367.44
2022-09-15T17:29:10.458Z,100373.25
2022-09-15T17:34:13.960Z,100373.16
2022-09-15T17:39:15.271Z,100372.59
2022-09-15T17:44:16.585Z,100366.22
2022-09-15T17:49:17.883Z,100364.00
2022-09-15T17:54:19.512Z,100362.75
2022-09-15T17:59:20.825Z,100365.06
2022-09-15T18:04:22.129Z,100372.38
2022-09-15T18:09:23.428Z,100369.53
2022-09-15T18:14:24.741Z,100373.75
2022-09-15T18:19:26.451Z,100385.19
2022-09-15T18:24:28.413Z,100397.22
2022-09-15T18:29:29.703Z,100401.81
2022-09-15T18:34:31.118Z,100409.91
2022-09-15T18:39:32.432Z,100411.75
2022-09-15T18:44:33.730Z,100413.47
2022-09-15T18:49:35.052Z,100421.59
2022-09-15T18:54:36.391Z,100418.19
2022-09-15T18:59:38.795Z,100415.19
2022-09-15T19:04:41.385Z,100415.41
2022-09-15T19:09:42.682Z,100418.25
2022-09-15T19:14:46.580Z,100425.94
2022-09-15T19:19:48.183Z,100432.22
2022-09-15T19:24:49.487Z,100434.16
2022-09-15T19:29:50.833Z,100440.66
2022-09-15T19:34:52.193Z,100443.19
2022-09-15T19:39:54.125Z,100444.78
2022-09-15T19:44:55.589Z,100428.78
2022-09-15T19:49:56.968Z,100433.63
2022-09-15T19:54:58.272Z,100432.03
2022-09-15T19:59:59.590Z,100437.38
2022-09-15T20:05:00.882Z,100441.91
2022-09-15T20:10:02.651Z,100440.66
2022-09-15T20:15:04.275Z,100448.69
2022-09-15T20:20:05.804Z,100443.69
2022-09-15T20:25:07.230Z,100448.94
2022-09-15T20:30:08.864Z,100457.13
2022-09-15T20:35:10.281Z,100452.31
2022-09-15T20:40:11.617Z,100457.59
2022-09-15T20:45:13.023Z,100466.97
2022-09-15T20:55:15.819Z,100472.44
2022-09-15T21:00:17.225Z,100474.97
2022-09-15T21:05:18.533Z,100479.56
2022-09-15T21:10:19.848Z,100476.34
2022-09-15T21:15:21.151Z,100480.31
2022-09-15T21:20:22.466Z,100480.06
2022-09-15T21:25:23.962Z,100486.97
2022-09-15T21:30:25.264Z,100491.97
2022-09-15T21:35:26.587Z,100493.22
2022-09-15T21:40:28.136Z,100485.66
2022-09-15T21:45:30.106Z,100498.81
2022-09-15T21:50:31.428Z,100486.53
2022-09-15T21:55:35.592Z,100499.53
2022-09-15T22:00:36.945Z,100504.25
2022-09-15T22:05:41.659Z,100508.34
2022-09-15T22:10:43.453Z,100502.50
2022-09-15T22:15:44.759Z,100504.06
2022-09-15T22:20:46.190Z,100499.00
2022-09-15T22:25:47.477Z,100500.13
2022-09-15T22:30:48.772Z,100504.88
2022-09-15T22:35:50.130Z,100499.75
2022-09-15T22:40:51.621Z,100507.44
2022-09-15T22:45:53.880Z,100502.75
2022-09-15T22:50:55.250Z,100510.28
2022-09-15T22:56:23.189Z,100511.38
2022-09-15T23:01:26.389Z,100507.78
2022-09-15T23:06:29.446Z,100499.78
2022-09-15T23:11:33.234Z,100515.38
2022-09-15T23:16:34.661Z,100510.94
2022-09-15T23:21:36.629Z,100519.03
2022-09-15T23:26:38.071Z,100511.28
2022-09-15T23:31:39.474Z,100514.50
2022-09-15T23:36:40.833Z,100503.25
2022-09-15T23:41:42.143Z,100504.06
2022-09-15T23:46:43.513Z,100501.81
2022-09-15T23:51:45.317Z,100505.25
2022-09-15T23:56:46.620Z,100497.00
